Boulder, Colorado
Current Conditions -  °F | °C
As of 2:37 AM on Friday 31 Oct 2014 (Local Time) from KBDU Reporting Station
Clear Clear  
Wind Chill: 39°   Ceiling: Unl
Heat Index: 39°   Visibility: 10mi
Dew Point: 28°   Wind: 3mph
Humidity: 65%   Direction: 60°ENE
Pressure: 30.37"   Gusts: NA
Location:  40.02°N, 105.27°W
Report Text: KBDU 310837Z AUTO 06003KT 10SM CLR 04/M02 A3037 RMK AO2
Loading
Personal Weather Stations






























Interactive Weather Map
Tropical Storm Tracking
New forecast layout! Learn more

10-Day Weather Forecast

Advertisements
Track Severe Weather on mobile